Hlavní strana
METAR-TAF:

METAR-TAF

Letiště :

Mosjøen, Norsko

zeměpisná šířka: 65-48N, zeměpisná délka: 013-08E, výška: 70 m

Aktuální stav počasí

Zpráva byla vytvořena před 6 hodinami a 36 minutami, v 21:50 UTC
Jihojihovýchodní vítr 3 kt, proměnlivý mezi východojihovýchodním a jižním
Teplota 0°C
Vlhkost vzduchu 74%
Tlak 1018 hPa
Viditelnost 10 km a více
Polojasno ve výšce 4300 ft
Oblačno až skoro zataženo ve výšce 6000 ft
slabé sněžení

METAR: ENMS 172150Z 15003KT 110V190 9999 -SN SCT043 BKN060 00/M04 Q1018 RMK WIND 412FT VRB03KT

Čas: 05:26 (04:26 UTC)


TAF: chybějící

Stav a předpovědi počasí z více než 4 000 letišť (zprávy METAR a TAF).

Červené a žluté tečky na mapě představují dostupné meteorologické stanice.

Když kurzor umístíte na tečku, zobrazí se název stanice.

Pak kliknutím zobrazíte stav a předpověď počasí.

Chcete-li změnit mapu, kliknutím na zelené tlačítko se znaménkem +mapu přiblížíte, kliknutím na zelené tlačítko se znaménkem – mapu oddálíte a kliknutím na zelené šipky přejdete na sousední mapy.


METAR-TAF: